createdAt,value
2023-05-21T00:01:20.437Z,13.52
2023-05-21T00:03:47.425Z,12.40
2023-05-21T00:06:15.545Z,13.35
2023-05-21T00:08:43.155Z,13.85
2023-05-21T00:11:09.997Z,13.82
2023-05-21T00:13:36.737Z,13.57
2023-05-21T00:16:03.589Z,13.23
2023-05-21T00:18:32.388Z,12.98
2023-05-21T00:20:59.344Z,14.23
2023-05-21T00:23:26.422Z,14.80
2023-05-21T00:25:53.642Z,13.65
2023-05-21T00:28:20.541Z,13.50
2023-05-21T00:30:47.393Z,13.93
2023-05-21T00:33:14.755Z,14.07
2023-05-21T00:35:41.593Z,14.73
2023-05-21T00:38:08.652Z,14.80
2023-05-21T00:40:36.448Z,15.00
2023-05-21T00:43:03.588Z,13.45
2023-05-21T00:45:30.634Z,14.98
2023-05-21T00:47:57.812Z,15.45
2023-05-21T00:50:26.139Z,15.25
2023-05-21T00:52:53.371Z,14.27
2023-05-21T00:55:20.575Z,14.93
2023-05-21T00:57:47.664Z,15.02
2023-05-21T01:00:15.386Z,14.10
2023-05-21T01:02:44.248Z,16.10
2023-05-21T01:07:50.697Z,16.02
2023-05-21T01:10:17.479Z,16.45
2023-05-21T01:12:45.735Z,15.75
2023-05-21T01:15:12.748Z,14.23
2023-05-21T01:17:39.957Z,14.05
2023-05-21T01:20:10.228Z,15.82
2023-05-21T01:22:43.948Z,15.05
2023-05-21T01:25:11.184Z,15.27
2023-05-21T01:27:37.914Z,14.73
2023-05-21T01:30:05.299Z,16.67
2023-05-21T01:32:53.048Z,15.38
2023-05-21T01:35:29.169Z,15.70
2023-05-21T01:38:05.905Z,15.27
2023-05-21T01:41:05.263Z,16.10
2023-05-21T01:43:34.345Z,15.55
2023-05-21T01:46:02.141Z,15.18
2023-05-21T01:48:30.511Z,16.35
2023-05-21T01:51:01.845Z,14.63
2023-05-21T01:53:28.624Z,15.20
2023-05-21T01:55:55.866Z,15.93
2023-05-21T01:58:24.229Z,15.43
2023-05-21T02:00:53.657Z,15.68
2023-05-21T02:05:55.586Z,16.10
2023-05-21T02:08:23.483Z,16.50
2023-05-21T02:10:50.745Z,16.25
2023-05-21T02:13:21.520Z,17.50
2023-05-21T02:15:49.726Z,17.05
2023-05-21T02:18:16.851Z,16.25
2023-05-21T02:20:43.946Z,17.50
2023-05-21T02:23:10.751Z,16.70
2023-05-21T02:25:37.834Z,16.77
2023-05-21T02:28:05.028Z,16.65
2023-05-21T02:30:31.785Z,16.88
2023-05-21T02:32:58.985Z,17.40
2023-05-21T02:35:26.058Z,17.42
2023-05-21T02:37:52.794Z,16.70
2023-05-21T02:40:19.487Z,17.75
2023-05-21T02:42:46.235Z,16.73
2023-05-21T02:45:13.259Z,15.65
2023-05-21T02:47:40.839Z,16.65
2023-05-21T02:50:08.805Z,16.08
2023-05-21T02:52:35.721Z,17.73
2023-05-21T02:55:02.548Z,16.98
2023-05-21T02:57:29.247Z,17.67
2023-05-21T02:59:56.073Z,17.55
2023-05-21T03:02:23.527Z,17.00
2023-05-21T03:04:50.832Z,17.73
2023-05-21T03:07:20.499Z,18.30
2023-05-21T03:09:47.477Z,16.15
2023-05-21T03:12:14.380Z,16.83
2023-05-21T03:14:44.026Z,17.65
2023-05-21T03:17:13.961Z,17.27
2023-05-21T03:19:41.915Z,17.55
2023-05-21T03:22:08.937Z,16.33
2023-05-21T03:24:36.685Z,18.50
2023-05-21T03:27:03.658Z,17.20
2023-05-21T03:29:30.593Z,16.83
2023-05-21T03:31:57.874Z,17.70
2023-05-21T03:34:25.038Z,16.63
2023-05-21T03:36:51.739Z,18.20
2023-05-21T03:39:18.536Z,18.00
2023-05-21T03:41:45.445Z,17.70
2023-05-21T03:44:12.289Z,16.73
2023-05-21T03:46:39.412Z,17.38
2023-05-21T03:49:06.285Z,16.13
2023-05-21T03:51:33.347Z,17.92
2023-05-21T03:54:00.205Z,16.98
2023-05-21T03:56:27.162Z,17.00
2023-05-21T03:58:54.058Z,17.10
2023-05-21T04:01:20.838Z,15.75
2023-05-21T04:03:47.680Z,16.92
2023-05-21T04:06:15.521Z,16.55
2023-05-21T04:08:42.703Z,16.40
2023-05-21T04:11:09.544Z,16.27
2023-05-21T04:13:36.323Z,17.08
2023-05-21T04:16:03.178Z,16.17
2023-05-21T04:18:29.917Z,16.48
2023-05-21T04:20:56.789Z,16.60
2023-05-21T04:23:23.944Z,15.95
2023-05-21T04:25:51.131Z,17.00
2023-05-21T04:28:20.163Z,18.00
2023-05-21T04:30:50.124Z,17.50
2023-05-21T04:33:18.367Z,16.73
2023-05-21T04:35:49.972Z,16.92
2023-05-21T04:38:19.706Z,16.42
2023-05-21T04:40:53.546Z,17.20
2023-05-21T04:43:25.800Z,16.77
2023-05-21T04:45:54.833Z,16.40
2023-05-21T04:48:27.496Z,16.02
2023-05-21T04:50:55.834Z,16.02
2023-05-21T04:53:23.425Z,16.48
2023-05-21T04:55:50.126Z,17.30
2023-05-21T04:58:19.594Z,17.02
2023-05-21T05:00:47.024Z,17.55
2023-05-21T05:03:14.265Z,16.95
2023-05-21T05:05:41.902Z,17.33
2023-05-21T05:08:08.667Z,16.55
2023-05-21T05:10:35.844Z,17.13
2023-05-21T05:13:02.633Z,17.48
2023-05-21T05:15:29.346Z,16.23
2023-05-21T05:17:56.648Z,17.00
2023-05-21T05:20:23.515Z,16.42
2023-05-21T05:22:50.292Z,16.48
2023-05-21T05:25:17.005Z,17.23
2023-05-21T05:27:44.035Z,17.55
2023-05-21T05:30:11.183Z,17.38
2023-05-21T05:32:38.029Z,17.80
2023-05-21T05:35:05.399Z,17.75
2023-05-21T05:37:33.678Z,17.67
2023-05-21T05:40:00.544Z,17.60
2023-05-21T05:42:27.296Z,16.52
2023-05-21T05:44:54.035Z,17.23
2023-05-21T05:47:21.849Z,17.08
2023-05-21T05:49:48.911Z,17.20
2023-05-21T05:52:16.054Z,17.30
2023-05-21T05:54:42.805Z,17.48
2023-05-21T05:57:09.552Z,18.10
2023-05-21T05:59:36.345Z,19.05
2023-05-21T06:02:03.177Z,17.45
2023-05-21T06:04:30.012Z,17.70
2023-05-21T06:06:57.689Z,18.00
2023-05-21T06:09:24.859Z,17.77
2023-05-21T06:11:51.674Z,17.50
2023-05-21T06:14:18.656Z,18.33
2023-05-21T06:16:45.470Z,18.23
2023-05-21T06:19:12.337Z,17.98
2023-05-21T06:21:39.090Z,16.65
2023-05-21T06:24:06.248Z,17.33
2023-05-21T06:26:32.976Z,18.08
2023-05-21T06:28:59.670Z,17.45
2023-05-21T06:31:26.632Z,17.67
2023-05-21T06:33:53.517Z,18.05
2023-05-21T06:36:21.500Z,17.98
2023-05-21T06:38:48.271Z,16.58
2023-05-21T06:41:15.044Z,17.50
2023-05-21T06:43:41.756Z,17.42
2023-05-21T06:46:08.562Z,16.67
2023-05-21T06:48:35.299Z,17.70
2023-05-21T06:51:02.022Z,17.45
2023-05-21T06:53:28.754Z,18.00
2023-05-21T06:55:55.459Z,16.90
2023-05-21T06:58:22.309Z,17.13
2023-05-21T07:00:49.303Z,17.70
2023-05-21T07:03:17.232Z,15.60
2023-05-21T07:05:44.183Z,17.60
2023-05-21T07:08:12.167Z,16.90
2023-05-21T07:10:39.238Z,17.08
2023-05-21T07:13:06.168Z,17.15
2023-05-21T07:15:33.149Z,16.70
2023-05-21T07:17:59.943Z,17.48
2023-05-21T07:20:26.717Z,17.95
2023-05-21T07:22:53.428Z,16.23
2023-05-21T07:25:20.385Z,16.40
2023-05-21T07:27:47.126Z,16.80
2023-05-21T07:30:14.602Z,16.45
2023-05-21T07:32:41.707Z,16.75
2023-05-21T07:35:08.864Z,17.58
2023-05-21T07:37:35.727Z,15.77
2023-05-21T07:40:02.521Z,15.52
2023-05-21T07:42:29.311Z,15.73
2023-05-21T07:44:56.111Z,16.40
2023-05-21T07:47:23.481Z,17.05
2023-05-21T07:49:50.389Z,17.05
2023-05-21T07:52:17.178Z,17.42
2023-05-21T07:54:44.074Z,17.23
2023-05-21T07:57:10.946Z,16.70
2023-05-21T07:59:37.792Z,16.48
2023-05-21T08:02:04.857Z,15.88
2023-05-21T08:04:32.014Z,16.85
2023-05-21T08:06:59.103Z,16.67
2023-05-21T08:09:26.212Z,16.73
2023-05-21T08:11:53.120Z,16.60
2023-05-21T08:14:19.912Z,16.10
2023-05-21T08:16:47.033Z,16.77
2023-05-21T08:19:13.882Z,16.50
2023-05-21T08:21:40.833Z,15.32
2023-05-21T08:24:07.570Z,17.08
2023-05-21T08:26:34.575Z,16.63
2023-05-21T08:29:01.666Z,16.25
2023-05-21T08:31:28.508Z,15.65
2023-05-21T08:33:56.573Z,15.05
2023-05-21T08:36:24.476Z,16.80
2023-05-21T08:38:51.246Z,16.80
2023-05-21T08:41:22.067Z,15.25
2023-05-21T08:43:54.335Z,16.85
2023-05-21T08:46:24.984Z,14.75
2023-05-21T08:48:55.752Z,15.50
2023-05-21T08:51:22.733Z,15.43
2023-05-21T08:53:51.636Z,16.52
2023-05-21T08:56:18.506Z,16.38
2023-05-21T08:58:46.810Z,16.35
2023-05-21T09:01:14.217Z,15.82
2023-05-21T09:03:42.414Z,16.10
2023-05-21T09:06:14.294Z,16.75
2023-05-21T09:08:48.105Z,16.48
2023-05-21T09:11:15.003Z,16.65
2023-05-21T09:13:43.498Z,15.90
2023-05-21T09:16:11.138Z,16.90
2023-05-21T09:18:37.869Z,13.57
2023-05-21T09:21:24.521Z,15.27
2023-05-21T09:23:58.895Z,14.15
2023-05-21T09:26:26.755Z,16.33
2023-05-21T09:28:59.383Z,14.85
2023-05-21T09:31:27.104Z,14.32
2023-05-21T09:33:55.596Z,15.15
2023-05-21T09:36:23.048Z,15.88
2023-05-21T09:38:51.927Z,14.88
2023-05-21T09:41:21.872Z,14.43
2023-05-21T09:43:49.186Z,14.05
2023-05-21T09:46:16.076Z,14.60
2023-05-21T09:48:43.329Z,15.02
2023-05-21T09:51:18.253Z,14.38
2023-05-21T09:53:58.040Z,14.25
2023-05-21T09:56:32.332Z,14.07
2023-05-21T09:59:01.969Z,12.85
2023-05-21T10:01:31.769Z,14.07
2023-05-21T10:04:00.435Z,13.90
2023-05-21T10:06:29.804Z,14.77
2023-05-21T10:08:58.047Z,15.13
2023-05-21T10:11:27.649Z,14.32
2023-05-21T10:14:09.542Z,14.82
2023-05-21T10:16:37.404Z,14.88
2023-05-21T10:19:06.141Z,15.52
2023-05-21T10:21:33.565Z,16.52
2023-05-21T10:24:02.738Z,14.85
2023-05-21T10:26:30.717Z,14.57
2023-05-21T10:29:00.786Z,15.73
2023-05-21T10:31:28.570Z,14.07
2023-05-21T10:33:56.171Z,15.13
2023-05-21T10:36:25.804Z,13.70
2023-05-21T10:38:53.194Z,14.73
2023-05-21T10:41:21.954Z,14.88
2023-05-21T10:44:06.854Z,15.07
2023-05-21T10:46:43.711Z,14.30
2023-05-21T10:49:25.500Z,13.63
2023-05-21T10:52:13.954Z,13.15
2023-05-21T10:55:09.659Z,13.70
2023-05-21T10:58:17.039Z,13.02
2023-05-21T11:00:44.481Z,13.07
2023-05-21T11:03:16.323Z,12.68
2023-05-21T11:06:03.396Z,13.43
2023-05-21T11:08:35.678Z,11.48
2023-05-21T11:11:03.791Z,12.38
2023-05-21T11:13:49.246Z,12.70
2023-05-21T11:16:17.757Z,12.07
2023-05-21T11:18:55.035Z,11.57
2023-05-21T11:21:22.608Z,12.32
2023-05-21T11:23:58.990Z,13.60
2023-05-21T11:27:06.380Z,12.70
2023-05-21T11:29:43.847Z,12.80
2023-05-21T11:32:15.579Z,11.45
2023-05-21T11:34:48.091Z,11.85
2023-05-21T11:37:30.089Z,11.52
2023-05-21T11:39:58.680Z,11.05
2023-05-21T11:42:29.367Z,11.30
2023-05-21T11:45:10.835Z,12.10
2023-05-21T11:47:39.870Z,11.18
2023-05-21T11:50:12.076Z,10.32
2023-05-21T11:52:40.045Z,10.63
2023-05-21T11:55:11.237Z,11.05
2023-05-21T11:57:41.066Z,9.55
2023-05-21T12:00:15.752Z,11.55
2023-05-21T12:02:48.797Z,10.63
2023-05-21T12:05:16.031Z,10.20
2023-05-21T12:07:42.960Z,10.32
2023-05-21T12:10:10.207Z,10.00
2023-05-21T12:12:50.478Z,9.93
2023-05-21T12:15:20.634Z,10.45
2023-05-21T12:17:57.219Z,9.35
2023-05-21T12:20:27.057Z,9.60
2023-05-21T12:22:54.265Z,10.88
2023-05-21T12:25:21.744Z,10.95
2023-05-21T12:27:57.839Z,10.90
2023-05-21T12:30:25.835Z,9.90
2023-05-21T12:32:52.805Z,10.02
2023-05-21T12:35:24.238Z,9.85
2023-05-21T12:37:51.622Z,10.80
2023-05-21T12:40:19.716Z,10.50
2023-05-21T12:42:46.664Z,10.50
2023-05-21T12:45:13.869Z,10.55
2023-05-21T12:47:40.661Z,10.35
2023-05-21T12:50:13.959Z,10.70
2023-05-21T12:52:43.038Z,9.50
2023-05-21T12:55:13.062Z,10.13
2023-05-21T12:57:39.869Z,9.60
2023-05-21T13:00:13.175Z,10.13
2023-05-21T13:02:44.804Z,10.18
2023-05-21T13:05:20.443Z,10.50
2023-05-21T13:07:48.131Z,9.75
2023-05-21T13:10:16.615Z,9.88
2023-05-21T13:12:44.708Z,10.07
2023-05-21T13:15:11.926Z,9.88
2023-05-21T13:17:38.803Z,9.35
2023-05-21T13:20:10.189Z,9.45
2023-05-21T13:22:47.778Z,9.68
2023-05-21T13:25:21.306Z,9.85
2023-05-21T13:27:49.716Z,9.77
2023-05-21T13:30:17.121Z,9.60
2023-05-21T13:32:44.434Z,9.43
2023-05-21T13:35:12.237Z,8.88
2023-05-21T13:37:40.831Z,9.13
2023-05-21T13:40:11.213Z,9.70
2023-05-21T13:42:38.713Z,8.65
2023-05-21T13:45:07.147Z,8.40
2023-05-21T13:47:35.640Z,9.90
2023-05-21T13:50:04.081Z,9.05
2023-05-21T13:52:30.823Z,8.88
2023-05-21T13:54:57.689Z,9.07
2023-05-21T13:57:26.812Z,9.05
2023-05-21T13:59:53.950Z,9.43
2023-05-21T14:02:21.049Z,9.95
2023-05-21T14:04:47.947Z,8.80
2023-05-21T14:07:15.038Z,9.48
2023-05-21T14:09:42.507Z,9.52
2023-05-21T14:12:09.505Z,8.93
2023-05-21T14:14:36.368Z,8.45
2023-05-21T14:17:03.188Z,8.18
2023-05-21T14:19:30.304Z,8.43
2023-05-21T14:21:57.307Z,8.10
2023-05-21T14:24:24.145Z,7.88
2023-05-21T14:26:50.929Z,8.63
2023-05-21T14:29:17.652Z,7.88
2023-05-21T14:31:44.726Z,7.57
2023-05-21T14:34:12.459Z,7.90
2023-05-21T14:36:39.459Z,7.50
2023-05-21T14:39:08.267Z,7.32
2023-05-21T14:41:38.766Z,7.95
2023-05-21T14:44:05.545Z,8.00
2023-05-21T14:46:32.677Z,7.57
2023-05-21T14:49:00.601Z,7.00
2023-05-21T14:51:27.382Z,7.50
2023-05-21T14:53:54.387Z,7.65
2023-05-21T14:56:22.123Z,6.75
2023-05-21T14:58:49.324Z,7.65
2023-05-21T15:01:16.231Z,6.95
2023-05-21T15:03:43.274Z,7.65
2023-05-21T15:06:10.357Z,7.38
2023-05-21T15:08:37.059Z,7.20
2023-05-21T15:11:03.810Z,6.93
2023-05-21T15:13:30.683Z,6.57
2023-05-21T15:15:57.476Z,7.07
2023-05-21T15:18:24.911Z,6.88
2023-05-21T15:20:51.828Z,6.90
2023-05-21T15:23:20.879Z,6.60
2023-05-21T15:25:49.897Z,7.22
2023-05-21T15:28:16.681Z,7.10
2023-05-21T15:30:43.370Z,7.40
2023-05-21T15:33:10.127Z,7.35
2023-05-21T15:35:37.379Z,7.15
2023-05-21T15:38:04.634Z,6.85
2023-05-21T15:40:32.582Z,7.28
2023-05-21T15:42:59.479Z,7.30
2023-05-21T15:45:26.350Z,7.50
2023-05-21T15:47:53.093Z,6.97
2023-05-21T15:50:19.936Z,7.07
2023-05-21T15:52:46.850Z,7.20
2023-05-21T15:55:14.401Z,6.80
2023-05-21T15:57:41.206Z,6.80
2023-05-21T16:00:09.413Z,6.53
2023-05-21T16:02:36.758Z,7.22
2023-05-21T16:05:03.875Z,6.90
2023-05-21T16:07:30.649Z,6.68
2023-05-21T16:09:57.406Z,6.82
2023-05-21T16:12:24.241Z,7.43
2023-05-21T16:14:51.142Z,6.63
2023-05-21T16:17:19.720Z,6.57
2023-05-21T16:19:47.247Z,6.43
2023-05-21T16:22:14.511Z,6.63
2023-05-21T16:24:41.200Z,7.28
2023-05-21T16:27:07.908Z,6.72
2023-05-21T16:29:34.642Z,6.95
2023-05-21T16:32:01.399Z,6.10
2023-05-21T16:34:28.263Z,6.82
2023-05-21T16:36:55.076Z,6.60
2023-05-21T16:39:21.947Z,6.50
2023-05-21T16:41:48.772Z,7.18
2023-05-21T16:44:15.552Z,6.82
2023-05-21T16:46:42.715Z,7.13
2023-05-21T16:49:09.425Z,6.80
2023-05-21T16:51:39.064Z,6.97
2023-05-21T16:54:06.354Z,7.50
2023-05-21T16:56:36.404Z,6.90
2023-05-21T16:59:03.152Z,7.07
2023-05-21T17:01:29.882Z,7.10
2023-05-21T17:03:56.803Z,7.25
2023-05-21T17:06:24.141Z,6.82
2023-05-21T17:08:50.919Z,6.25
2023-05-21T17:11:17.740Z,6.78
2023-05-21T17:13:48.246Z,6.28
2023-05-21T17:16:15.062Z,6.72
2023-05-21T17:18:41.903Z,6.93
2023-05-21T17:21:09.236Z,7.07
2023-05-21T17:23:36.021Z,7.03
2023-05-21T17:26:02.741Z,6.15
2023-05-21T17:28:29.540Z,8.45
2023-05-21T17:30:56.350Z,6.95
2023-05-21T17:33:23.773Z,6.97
2023-05-21T17:35:50.676Z,6.32
2023-05-21T17:38:17.373Z,6.70
2023-05-21T17:40:44.129Z,7.15
2023-05-21T17:43:11.031Z,6.68
2023-05-21T17:45:37.988Z,6.53
2023-05-21T17:48:05.348Z,6.47
2023-05-21T17:50:32.262Z,6.95
2023-05-21T17:52:59.451Z,7.10
2023-05-21T17:55:26.196Z,7.03
2023-05-21T17:57:53.003Z,7.05
2023-05-21T18:00:20.047Z,6.82
2023-05-21T18:02:46.849Z,6.93
2023-05-21T18:05:13.674Z,6.55
2023-05-21T18:07:41.290Z,6.68
2023-05-21T18:10:08.450Z,5.95
2023-05-21T18:12:35.884Z,5.35
2023-05-21T18:15:02.833Z,6.00
2023-05-21T18:17:29.578Z,4.97
2023-05-21T18:19:56.372Z,4.85
2023-05-21T18:22:23.164Z,4.57
2023-05-21T18:24:50.123Z,4.38
2023-05-21T18:27:17.100Z,4.15
2023-05-21T18:29:43.841Z,3.80
2023-05-21T18:32:11.860Z,3.88
2023-05-21T18:34:38.792Z,4.45
2023-05-21T18:37:06.735Z,4.10
2023-05-21T18:39:33.393Z,4.20
2023-05-21T18:42:12.299Z,4.30
2023-05-21T18:44:40.629Z,4.30
2023-05-21T18:47:08.214Z,5.10
2023-05-21T18:49:36.245Z,4.38
2023-05-21T18:52:04.195Z,5.10
2023-05-21T18:54:31.511Z,4.40
2023-05-21T18:57:01.014Z,5.05
2023-05-21T18:59:28.780Z,4.78
2023-05-21T19:01:55.981Z,5.07
2023-05-21T19:04:22.964Z,4.90
2023-05-21T19:06:49.746Z,5.40
2023-05-21T19:09:16.643Z,4.80
2023-05-21T19:11:43.387Z,4.03
2023-05-21T19:14:10.081Z,5.35
2023-05-21T19:16:36.959Z,4.93
2023-05-21T19:19:04.263Z,4.95
2023-05-21T19:21:31.530Z,5.15
2023-05-21T19:23:58.712Z,4.70
2023-05-21T19:26:25.601Z,4.65
2023-05-21T19:28:55.650Z,5.45
2023-05-21T19:31:23.575Z,5.03
2023-05-21T19:33:50.653Z,4.80
2023-05-21T19:36:18.637Z,4.82
2023-05-21T19:38:50.052Z,5.22
2023-05-21T19:41:17.911Z,4.72
2023-05-21T19:43:47.492Z,5.53
2023-05-21T19:46:17.102Z,5.05
2023-05-21T19:48:44.068Z,5.75
2023-05-21T19:51:10.849Z,6.03
2023-05-21T19:53:38.415Z,5.50
2023-05-21T19:56:05.235Z,5.88
2023-05-21T19:58:33.117Z,5.13
2023-05-21T20:01:00.336Z,5.22
2023-05-21T20:03:28.406Z,5.60
2023-05-21T20:05:55.485Z,5.60
2023-05-21T20:08:22.770Z,5.72
2023-05-21T20:10:51.746Z,5.60
2023-05-21T20:13:18.981Z,5.78
2023-05-21T20:15:45.823Z,6.18
2023-05-21T20:18:12.984Z,6.45
2023-05-21T20:20:41.445Z,6.10
2023-05-21T20:23:08.829Z,6.40
2023-05-21T20:25:35.768Z,6.20
2023-05-21T20:28:03.063Z,6.75
2023-05-21T20:30:34.343Z,5.93
2023-05-21T20:33:02.391Z,5.53
2023-05-21T20:35:29.486Z,5.97
2023-05-21T20:37:56.327Z,5.88
2023-05-21T20:40:23.047Z,6.30
2023-05-21T20:42:53.074Z,6.78
2023-05-21T20:45:22.736Z,6.00
2023-05-21T20:47:50.046Z,6.43
2023-05-21T20:50:17.781Z,6.07
2023-05-21T20:52:47.006Z,5.80
2023-05-21T20:55:14.785Z,6.68
2023-05-21T20:57:42.095Z,6.13
2023-05-21T21:00:11.886Z,6.80
2023-05-21T21:02:39.016Z,6.75
2023-05-21T21:05:06.459Z,6.97
2023-05-21T21:07:34.244Z,6.68
2023-05-21T21:10:01.440Z,6.53
2023-05-21T21:12:28.416Z,6.55
2023-05-21T21:14:55.649Z,6.80
2023-05-21T21:17:22.925Z,6.35
2023-05-21T21:19:49.870Z,6.82
2023-05-21T21:22:18.183Z,6.40
2023-05-21T21:24:45.529Z,6.47
2023-05-21T21:27:12.372Z,6.88
2023-05-21T21:29:39.165Z,6.97
2023-05-21T21:32:06.301Z,7.45
2023-05-21T21:34:33.044Z,7.25
2023-05-21T21:36:59.839Z,6.82
2023-05-21T21:39:26.880Z,7.50
2023-05-21T21:41:53.722Z,7.57
2023-05-21T21:44:20.643Z,7.63
2023-05-21T21:46:47.724Z,7.32
2023-05-21T21:49:17.188Z,7.07
2023-05-21T21:51:48.416Z,7.40
2023-05-21T21:54:15.165Z,7.38
2023-05-21T21:56:41.940Z,7.95
2023-05-21T21:59:08.840Z,7.70
2023-05-21T22:01:36.043Z,7.38
2023-05-21T22:04:02.910Z,7.38
2023-05-21T22:06:29.966Z,7.30
2023-05-21T22:08:56.704Z,7.70
2023-05-21T22:11:23.552Z,8.25
2023-05-21T22:13:50.255Z,7.53
2023-05-21T22:16:17.037Z,7.70
2023-05-21T22:18:44.006Z,7.68
2023-05-21T22:21:14.291Z,7.85
2023-05-21T22:23:41.373Z,7.78
2023-05-21T22:26:08.758Z,7.70
2023-05-21T22:28:35.683Z,7.68
2023-05-21T22:31:02.910Z,7.90
2023-05-21T22:33:29.796Z,7.63
2023-05-21T22:35:56.932Z,7.78
2023-05-21T22:38:24.344Z,7.72
2023-05-21T22:40:51.169Z,8.07
2023-05-21T22:43:17.939Z,8.27
2023-05-21T22:45:44.765Z,7.97
2023-05-21T22:48:11.611Z,8.10
2023-05-21T22:50:39.229Z,8.35
2023-05-21T22:53:06.979Z,8.48
2023-05-21T22:55:33.823Z,7.75
2023-05-21T22:58:00.761Z,9.02
2023-05-21T23:00:27.556Z,8.35
2023-05-21T23:02:54.925Z,9.07
2023-05-21T23:05:22.318Z,8.25
2023-05-21T23:07:49.370Z,8.85
2023-05-21T23:10:16.299Z,8.55
2023-05-21T23:12:43.101Z,9.05
2023-05-21T23:15:11.113Z,9.25
2023-05-21T23:17:38.544Z,8.95
2023-05-21T23:20:07.393Z,8.63
2023-05-21T23:22:34.642Z,8.30
2023-05-21T23:25:01.666Z,7.85
2023-05-21T23:27:29.300Z,9.00
2023-05-21T23:29:56.468Z,8.10
2023-05-21T23:32:23.690Z,8.25
2023-05-21T23:34:50.783Z,7.88
2023-05-21T23:37:17.794Z,8.40
2023-05-21T23:39:48.185Z,8.57
2023-05-21T23:42:18.437Z,8.48
2023-05-21T23:44:45.274Z,8.13
2023-05-21T23:47:12.141Z,7.65
2023-05-21T23:49:39.660Z,8.38
2023-05-21T23:52:07.008Z,8.57
2023-05-21T23:54:34.230Z,8.30
2023-05-21T23:57:02.114Z,7.95
2023-05-21T23:59:29.317Z,8.35
